createdAt,value
2018-12-25T00:02:08.959Z,102403.56
2018-12-25T00:04:34.992Z,102403.02
2018-12-25T00:07:00.987Z,102395.86
2018-12-25T00:09:27.036Z,102390.59
2018-12-25T00:11:53.032Z,102392.09
2018-12-25T00:14:19.062Z,102382.13
2018-12-25T00:16:45.098Z,102390.50
2018-12-25T00:19:11.081Z,102390.13
2018-12-25T00:21:37.128Z,102393.25
2018-12-25T00:24:03.104Z,102396.27
2018-12-25T00:26:29.155Z,102401.62
2018-12-25T00:28:55.205Z,102398.24
2018-12-25T00:31:21.217Z,102399.27
2018-12-25T00:33:47.216Z,102397.14
2018-12-25T00:36:13.252Z,102401.59
2018-12-25T00:38:39.244Z,102403.13
2018-12-25T00:41:05.298Z,102405.46
2018-12-25T00:43:31.292Z,102399.37
2018-12-25T00:45:57.281Z,102396.23
2018-12-25T00:48:23.338Z,102404.70
2018-12-25T00:50:49.335Z,102404.61
2018-12-25T00:53:15.381Z,102400.31
2018-12-25T00:55:41.417Z,102385.75
2018-12-25T00:58:07.443Z,102385.95
2018-12-25T01:00:33.433Z,102388.50
2018-12-25T01:02:59.475Z,102392.04
2018-12-25T01:05:25.499Z,102388.66
2018-12-25T01:07:51.527Z,102392.30
2018-12-25T01:10:17.519Z,102402.30
2018-12-25T01:12:43.503Z,102402.09
2018-12-25T01:15:09.546Z,102408.27
2018-12-25T01:17:35.582Z,102408.20
2018-12-25T01:23:15.254Z,102400.56
2018-12-25T01:25:41.277Z,102417.21
2018-12-25T01:28:07.378Z,102411.67
2018-12-25T01:30:53.265Z,102409.39
2018-12-25T01:33:19.350Z,102409.81
2018-12-25T01:35:45.348Z,102406.23
2018-12-25T01:38:11.362Z,102412.05
2018-12-25T01:40:37.437Z,102410.45
2018-12-25T01:43:03.428Z,102410.86
2018-12-25T01:45:29.471Z,102407.31
2018-12-25T01:47:55.518Z,102407.51
2018-12-25T01:50:21.554Z,102395.77
2018-12-25T01:52:47.551Z,102402.48
2018-12-25T01:55:13.589Z,102401.53
2018-12-25T01:57:39.591Z,102399.75
2018-12-25T02:00:05.618Z,102403.08
2018-12-25T02:02:31.635Z,102400.88
2018-12-25T02:04:57.660Z,102391.98
2018-12-25T02:07:23.697Z,102403.17
2018-12-25T02:09:49.745Z,102395.01
2018-12-25T02:12:15.747Z,102397.23
2018-12-25T02:14:41.835Z,102386.48
2018-12-25T02:17:27.736Z,102387.77
2018-12-25T02:19:53.771Z,102381.99
2018-12-25T02:22:19.809Z,102379.43
2018-12-25T02:24:45.801Z,102378.63
2018-12-25T02:27:11.827Z,102385.28
2018-12-25T02:29:37.829Z,102381.17
2018-12-25T02:32:03.850Z,102378.73
2018-12-25T02:34:29.834Z,102389.31
2018-12-25T02:36:55.869Z,102377.45
2018-12-25T02:39:21.881Z,102373.03
2018-12-25T02:41:47.903Z,102369.24
2018-12-25T02:44:13.950Z,102365.45
2018-12-25T02:46:39.919Z,102363.75
2018-12-25T02:49:05.989Z,102363.00
2018-12-25T02:51:31.995Z,102364.63
2018-12-25T02:53:57.987Z,102361.59
2018-12-25T02:56:24.029Z,102358.08
2018-12-25T02:58:50.021Z,102363.56
2018-12-25T03:01:16.067Z,102357.53
2018-12-25T03:03:42.061Z,102354.75
2018-12-25T03:06:08.095Z,102349.44
2018-12-25T03:08:34.094Z,102357.67
2018-12-25T03:11:19.989Z,102349.02
2018-12-25T03:13:46.023Z,102349.48
2018-12-25T03:16:12.022Z,102348.46
2018-12-25T03:18:38.050Z,102347.27
2018-12-25T03:21:04.055Z,102346.98
2018-12-25T03:23:30.079Z,102357.60
2018-12-25T03:25:56.064Z,102354.36
2018-12-25T03:28:22.118Z,102351.78
2018-12-25T03:30:48.110Z,102345.83
2018-12-25T03:33:14.094Z,102349.39
2018-12-25T03:35:40.115Z,102352.61
2018-12-25T03:38:06.146Z,102358.03
2018-12-25T03:40:32.130Z,102354.22
2018-12-25T03:43:39.816Z,102355.06
2018-12-25T03:46:05.872Z,102358.02
2018-12-25T03:48:31.882Z,102353.20
2018-12-25T03:50:57.921Z,102347.52
2018-12-25T03:53:23.934Z,102339.77
2018-12-25T03:55:49.969Z,102346.88
2018-12-25T03:58:16.008Z,102360.28
2018-12-25T04:00:42.046Z,102348.16
2018-12-25T04:03:08.047Z,102347.59
2018-12-25T04:05:34.053Z,102346.56
2018-12-25T04:08:00.105Z,102346.43
2018-12-25T04:10:26.122Z,102341.38
2018-12-25T04:12:52.123Z,102333.02
2018-12-25T04:15:18.155Z,102336.95
2018-12-25T04:17:44.168Z,102339.61
2018-12-25T04:20:19.552Z,102322.68
2018-12-25T04:22:38.280Z,102324.31
2018-12-25T04:25:04.332Z,102325.22
2018-12-25T04:27:30.365Z,102324.90
2018-12-25T04:29:56.355Z,102328.36
2018-12-25T04:32:22.401Z,102340.16
2018-12-25T04:34:48.397Z,102337.45
2018-12-25T04:37:14.424Z,102333.70
2018-12-25T04:39:40.424Z,102329.00
2018-12-25T04:42:06.451Z,102333.39
2018-12-25T04:44:32.523Z,102332.09
2018-12-25T04:46:58.514Z,102325.08
2018-12-25T04:49:24.577Z,102329.30
2018-12-25T04:51:50.559Z,102337.89
2018-12-25T04:54:16.607Z,102338.50
2018-12-25T04:56:42.622Z,102342.36
2018-12-25T04:59:08.651Z,102344.16
2018-12-25T05:01:34.646Z,102352.61
2018-12-25T05:04:00.682Z,102347.48
2018-12-25T05:06:27.017Z,102346.95
2018-12-25T05:08:53.047Z,102339.17
2018-12-25T05:11:19.082Z,102342.59
2018-12-25T05:13:45.083Z,102355.14
2018-12-25T05:16:11.107Z,102357.58
2018-12-25T05:18:37.097Z,102349.81
2018-12-25T05:21:03.128Z,102349.69
2018-12-25T05:23:29.156Z,102347.95
2018-12-25T05:25:55.185Z,102346.10
2018-12-25T05:28:21.215Z,102347.82
2018-12-25T05:30:47.273Z,102345.25
2018-12-25T05:33:13.269Z,102344.86
2018-12-25T05:35:39.266Z,102338.48
2018-12-25T05:38:05.298Z,102342.11
2018-12-25T05:40:31.292Z,102331.18
2018-12-25T05:42:57.335Z,102345.92
2018-12-25T05:45:23.330Z,102347.02
2018-12-25T05:47:49.370Z,102355.00
2018-12-25T05:50:35.400Z,102337.72
2018-12-25T05:53:01.435Z,102327.29
2018-12-25T05:55:27.467Z,102331.80
2018-12-25T05:57:53.464Z,102343.63
2018-12-25T06:00:19.510Z,102334.94
2018-12-25T06:02:45.490Z,102326.20
2018-12-25T06:05:11.480Z,102334.52
2018-12-25T06:07:37.509Z,102323.70
2018-12-25T06:10:03.643Z,102324.71
2018-12-25T06:12:29.701Z,102320.16
2018-12-25T06:14:55.771Z,102321.77
2018-12-25T06:17:21.801Z,102312.01
2018-12-25T06:19:47.797Z,102304.25
2018-12-25T06:22:13.821Z,102311.59
2018-12-25T06:24:39.823Z,102321.94
2018-12-25T06:27:05.849Z,102319.73
2018-12-25T06:29:31.881Z,102318.47
2018-12-25T06:31:57.925Z,102316.73
2018-12-25T06:34:23.946Z,102320.97
2018-12-25T06:36:49.977Z,102321.73
2018-12-25T06:41:48.170Z,102324.86
2018-12-25T06:44:14.235Z,102320.68
2018-12-25T06:47:00.128Z,102319.41
2018-12-25T06:49:26.185Z,102324.56
2018-12-25T06:51:52.230Z,102313.64
2018-12-25T06:54:18.219Z,102328.56
2018-12-25T06:56:44.260Z,102328.22
2018-12-25T06:59:10.306Z,102327.69
2018-12-25T07:01:36.362Z,102332.27
2018-12-25T07:04:02.384Z,102324.89
2018-12-25T07:06:28.382Z,102329.17
2018-12-25T07:11:26.362Z,102321.73
2018-12-25T07:13:52.434Z,102317.54
2018-12-25T07:16:18.552Z,102317.45
2018-12-25T07:18:44.587Z,102309.36
2018-12-25T07:21:12.220Z,102309.36
2018-12-25T07:23:38.593Z,102302.67
2018-12-25T07:26:04.625Z,102298.71
2018-12-25T07:28:30.629Z,102298.57
2018-12-25T07:30:56.668Z,102311.38
2018-12-25T07:33:22.655Z,102298.05
2018-12-25T07:35:48.682Z,102289.59
2018-12-25T07:38:14.678Z,102285.64
2018-12-25T07:41:00.573Z,102292.66
2018-12-25T07:43:26.611Z,102301.00
2018-12-25T07:45:52.673Z,102298.89
2018-12-25T07:48:18.704Z,102301.72
2018-12-25T07:50:44.728Z,102300.91
2018-12-25T07:53:10.768Z,102287.81
2018-12-25T07:55:36.764Z,102278.21
2018-12-25T07:58:02.798Z,102272.27
2018-12-25T08:00:28.800Z,102264.34
2018-12-25T08:02:54.781Z,102268.69
2018-12-25T08:05:20.795Z,102267.85
2018-12-25T08:07:46.810Z,102273.87
2018-12-25T08:10:12.843Z,102277.28
2018-12-25T08:12:38.851Z,102280.95
2018-12-25T08:15:04.970Z,102284.81
2018-12-25T08:17:30.936Z,102291.93
2018-12-25T08:19:56.932Z,102292.31
2018-12-25T08:22:22.948Z,102297.80
2018-12-25T08:24:48.972Z,102296.29
2018-12-25T08:27:14.963Z,102305.08
2018-12-25T08:29:40.982Z,102309.31
2018-12-25T08:32:07.028Z,102305.35
2018-12-25T08:34:33.007Z,102310.19
2018-12-25T08:36:59.001Z,102306.27
2018-12-25T08:39:25.011Z,102306.16
2018-12-25T08:41:51.509Z,102301.28
2018-12-25T08:44:19.008Z,102303.32
2018-12-25T08:46:45.001Z,102307.05
2018-12-25T08:49:11.047Z,102299.70
2018-12-25T08:51:37.766Z,102296.66
2018-12-25T08:54:05.096Z,102304.75
2018-12-25T08:56:31.087Z,102302.63
2018-12-25T08:58:57.056Z,102317.34
2018-12-25T09:01:23.054Z,102321.55
2018-12-25T09:03:49.074Z,102314.91
2018-12-25T09:06:15.086Z,102310.25
2018-12-25T09:08:41.052Z,102315.85
2018-12-25T09:11:07.106Z,102307.91
2018-12-25T09:13:33.110Z,102305.34
2018-12-25T09:15:59.152Z,102306.08
2018-12-25T09:18:25.128Z,102307.09
2018-12-25T09:20:51.115Z,102316.61
2018-12-25T09:23:17.160Z,102318.59
2018-12-25T09:25:43.210Z,102324.64
2018-12-25T09:28:09.727Z,102332.92
2018-12-25T09:30:35.754Z,102332.42
2018-12-25T09:33:01.731Z,102323.45
2018-12-25T09:35:27.746Z,102314.70
2018-12-25T09:37:53.715Z,102318.39
2018-12-25T09:40:19.719Z,102322.61
2018-12-25T09:42:45.705Z,102320.80
2018-12-25T09:45:11.743Z,102323.30
2018-12-25T09:47:37.711Z,102330.91
2018-12-25T09:50:03.728Z,102337.27
2018-12-25T09:52:29.755Z,102341.31
2018-12-25T09:54:55.777Z,102344.39
2018-12-25T09:57:21.812Z,102330.03
2018-12-25T09:59:47.814Z,102337.06
2018-12-25T10:02:14.219Z,102330.33
2018-12-25T10:04:40.193Z,102326.63
2018-12-25T10:07:06.169Z,102334.87
2018-12-25T10:09:32.182Z,102335.50
2018-12-25T10:11:58.164Z,102336.95
2018-12-25T10:14:24.172Z,102327.32
2018-12-25T10:16:50.150Z,102329.59
2018-12-25T10:19:16.250Z,102334.05
2018-12-25T10:21:42.231Z,102334.64
2018-12-25T10:24:08.266Z,102333.93
2018-12-25T10:26:34.246Z,102335.97
2018-12-25T10:29:00.290Z,102336.16
2018-12-25T10:31:26.282Z,102332.63
2018-12-25T10:33:52.303Z,102339.93
2018-12-25T10:36:18.315Z,102338.05
2018-12-25T10:38:44.296Z,102332.67
2018-12-25T10:41:10.330Z,102333.55
2018-12-25T10:43:36.314Z,102328.75
2018-12-25T10:46:02.380Z,102324.95
2018-12-25T10:48:28.348Z,102318.37
2018-12-25T10:50:54.365Z,102317.36
2018-12-25T10:53:20.407Z,102310.69
2018-12-25T10:55:46.439Z,102311.37
2018-12-25T10:58:12.406Z,102303.80
2018-12-25T11:01:20.075Z,102298.75
2018-12-25T11:03:46.153Z,102306.89
2018-12-25T11:06:12.201Z,102297.84
2018-12-25T11:08:38.226Z,102283.89
2018-12-25T11:11:04.223Z,102277.87
2018-12-25T11:13:30.288Z,102273.42
2018-12-25T11:15:56.295Z,102277.75
2018-12-25T11:18:22.342Z,102276.19
2018-12-25T11:20:48.340Z,102273.41
2018-12-25T11:23:14.359Z,102276.08
2018-12-25T11:25:40.401Z,102259.59
2018-12-25T11:28:06.414Z,102259.23
2018-12-25T11:30:32.455Z,102262.10
2018-12-25T11:32:58.449Z,102249.92
2018-12-25T11:35:24.499Z,102266.00
2018-12-25T11:37:50.506Z,102258.61
2018-12-25T11:40:16.547Z,102265.08
2018-12-25T11:42:42.553Z,102264.73
2018-12-25T11:45:08.641Z,102273.07
2018-12-25T11:47:34.726Z,102272.20
2018-12-25T11:50:00.767Z,102266.59
2018-12-25T11:52:28.487Z,102270.84
2018-12-25T11:54:54.765Z,102254.86
2018-12-25T11:57:20.754Z,102260.03
2018-12-25T11:59:46.804Z,102264.76
2018-12-25T12:02:17.020Z,102263.14
2018-12-25T12:04:40.851Z,102267.44
2018-12-25T12:07:06.874Z,102266.14
2018-12-25T12:09:52.768Z,102270.05
2018-12-25T12:12:18.814Z,102270.14
2018-12-25T12:14:44.822Z,102273.10
2018-12-25T12:17:10.867Z,102272.14
2018-12-25T12:19:36.840Z,102269.73
2018-12-25T12:22:02.880Z,102270.67
2018-12-25T12:24:28.868Z,102268.81
2018-12-25T12:26:54.914Z,102278.67
2018-12-25T12:29:20.951Z,102270.50
2018-12-25T12:31:46.968Z,102270.91
2018-12-25T12:34:13.006Z,102263.98
2018-12-25T12:36:39.009Z,102251.30
2018-12-25T12:39:46.678Z,102260.42
2018-12-25T12:42:12.729Z,102267.45
2018-12-25T12:44:38.770Z,102271.84
2018-12-25T12:47:04.895Z,102261.34
2018-12-25T12:49:31.332Z,102258.70
2018-12-25T12:51:58.875Z,102266.16
2018-12-25T12:54:24.932Z,102269.09
2018-12-25T12:56:50.953Z,102259.21
2018-12-25T12:59:17.000Z,102261.27
2018-12-25T13:01:43.059Z,102264.41
2018-12-25T13:04:29.036Z,102257.89
2018-12-25T13:06:55.065Z,102257.41
2018-12-25T13:09:21.105Z,102260.01
2018-12-25T13:11:47.060Z,102270.11
2018-12-25T13:14:13.110Z,102260.07
2018-12-25T13:16:39.130Z,102254.40
2018-12-25T13:19:05.139Z,102257.84
2018-12-25T13:21:31.184Z,102270.55
2018-12-25T13:23:57.195Z,102272.70
2018-12-25T13:26:23.213Z,102256.16
2018-12-25T13:28:49.242Z,102267.60
2018-12-25T13:31:15.256Z,102257.95
2018-12-25T13:33:41.269Z,102268.72
2018-12-25T13:36:07.312Z,102267.94
2018-12-25T13:38:33.354Z,102270.17
2018-12-25T13:41:00.252Z,102273.55
2018-12-25T13:43:27.387Z,102280.58
2018-12-25T13:45:53.376Z,102276.61
2018-12-25T13:48:19.406Z,102285.74
2018-12-25T13:50:45.441Z,102278.88
2018-12-25T13:53:11.482Z,102284.52
2018-12-25T13:55:44.880Z,102288.92
2018-12-25T13:58:10.890Z,102282.39
2018-12-25T14:00:36.931Z,102290.64
2018-12-25T14:03:02.962Z,102284.11
2018-12-25T14:05:29.000Z,102285.86
2018-12-25T14:07:55.004Z,102283.99
2018-12-25T14:10:21.098Z,102296.30
2018-12-25T14:12:47.166Z,102283.33
2018-12-25T14:15:13.212Z,102290.63
2018-12-25T14:17:39.208Z,102302.95
2018-12-25T14:20:05.217Z,102294.17
2018-12-25T14:22:31.240Z,102300.09
2018-12-25T14:24:57.289Z,102303.32
2018-12-25T14:29:55.977Z,102307.52
2018-12-25T14:32:21.976Z,102300.26
2018-12-25T14:34:47.973Z,102291.47
2018-12-25T14:37:14.016Z,102297.64
2018-12-25T14:39:40.049Z,102308.47
2018-12-25T14:42:06.075Z,102302.41
2018-12-25T14:44:32.137Z,102286.38
2018-12-25T14:46:58.170Z,102302.62
2018-12-25T14:49:38.072Z,102299.27
2018-12-25T14:52:04.156Z,102297.36
2018-12-25T14:54:30.228Z,102288.73
2018-12-25T14:56:56.242Z,102298.69
2018-12-25T14:59:22.237Z,102290.00
2018-12-25T15:01:48.284Z,102295.27
2018-12-25T15:04:14.280Z,102291.31
2018-12-25T15:06:40.291Z,102293.56
2018-12-25T15:09:06.308Z,102289.22
2018-12-25T15:11:32.338Z,102288.68
2018-12-25T15:13:58.364Z,102290.66
2018-12-25T15:16:24.360Z,102289.15
2018-12-25T15:18:50.383Z,102287.52
2018-12-25T15:21:16.368Z,102286.98
2018-12-25T15:23:42.394Z,102291.86
2018-12-25T15:26:08.397Z,102289.97
2018-12-25T15:28:34.425Z,102294.33
2018-12-25T15:31:00.446Z,102287.91
2018-12-25T15:33:26.473Z,102282.16
2018-12-25T15:35:52.508Z,102283.08
2018-12-25T15:38:18.622Z,102297.45
2018-12-25T15:40:44.661Z,102290.08
2018-12-25T15:43:10.663Z,102297.09
2018-12-25T15:45:36.667Z,102292.29
2018-12-25T15:48:02.712Z,102291.84
2018-12-25T15:50:28.801Z,102291.48
2018-12-25T15:52:54.855Z,102292.67
2018-12-25T15:55:20.857Z,102283.19
2018-12-25T15:57:46.857Z,102290.52
2018-12-25T16:00:54.515Z,102289.17
2018-12-25T16:03:20.591Z,102284.80
2018-12-25T16:05:46.592Z,102295.19
2018-12-25T16:08:12.633Z,102294.41
2018-12-25T16:10:38.625Z,102293.48
2018-12-25T16:13:04.671Z,102295.13
2018-12-25T16:15:30.714Z,102296.97
2018-12-25T16:17:56.723Z,102297.00
2018-12-25T16:20:22.775Z,102287.95
2018-12-25T16:22:48.775Z,102296.89
2018-12-25T16:25:14.836Z,102299.59
2018-12-25T16:27:40.835Z,102293.45
2018-12-25T16:30:06.871Z,102293.52
2018-12-25T16:32:32.868Z,102296.94
2018-12-25T16:34:58.897Z,102299.12
2018-12-25T16:37:24.888Z,102299.61
2018-12-25T16:39:50.921Z,102292.81
2018-12-25T16:42:16.916Z,102290.14
2018-12-25T16:44:42.947Z,102293.58
2018-12-25T16:47:08.945Z,102293.20
2018-12-25T16:49:35.003Z,102291.50
2018-12-25T16:52:01.073Z,102288.48
2018-12-25T16:54:27.071Z,102290.22
2018-12-25T16:56:53.127Z,102287.13
2018-12-25T16:59:19.166Z,102289.62
2018-12-25T17:01:45.209Z,102286.55
2018-12-25T17:04:11.253Z,102271.89
2018-12-25T17:06:37.301Z,102272.31
2018-12-25T17:09:44.937Z,102271.34
2018-12-25T17:12:11.021Z,102270.36
2018-12-25T17:14:37.012Z,102271.77
2018-12-25T17:17:03.009Z,102263.98
2018-12-25T17:19:29.069Z,102269.12
2018-12-25T17:21:55.115Z,102264.73
2018-12-25T17:24:21.127Z,102261.75
2018-12-25T17:26:47.126Z,102272.77
2018-12-25T17:29:13.178Z,102260.52
2018-12-25T17:31:39.170Z,102257.02
2018-12-25T17:34:25.192Z,102261.73
2018-12-25T17:36:51.190Z,102262.23
2018-12-25T17:39:17.238Z,102262.25
2018-12-25T17:41:43.252Z,102259.67
2018-12-25T17:44:09.250Z,102263.58
2018-12-25T17:46:35.298Z,102270.99
2018-12-25T17:49:01.344Z,102264.05
2018-12-25T17:51:47.235Z,102259.17
2018-12-25T17:54:13.281Z,102267.48
2018-12-25T17:56:39.327Z,102264.88
2018-12-25T17:59:05.322Z,102264.50
2018-12-25T18:04:03.827Z,102258.77
2018-12-25T18:06:29.834Z,102263.58
2018-12-25T18:08:55.883Z,102266.59
2018-12-25T18:11:21.888Z,102265.32
2018-12-25T18:16:19.988Z,102274.05
2018-12-25T18:18:45.999Z,102264.34
2018-12-25T18:21:12.026Z,102261.86
2018-12-25T18:23:38.043Z,102272.33
2018-12-25T18:26:04.095Z,102270.13
2018-12-25T18:28:30.119Z,102276.23
2018-12-25T18:30:56.115Z,102273.19
2018-12-25T18:33:22.165Z,102274.87
2018-12-25T18:35:48.172Z,102275.45
2018-12-25T18:38:14.203Z,102275.45
2018-12-25T18:40:40.202Z,102274.55
2018-12-25T18:43:06.250Z,102278.89
2018-12-25T18:45:32.268Z,102273.66
2018-12-25T18:47:58.300Z,102279.38
2018-12-25T18:50:24.383Z,102278.00
2018-12-25T18:52:50.433Z,102284.09
2018-12-25T18:55:16.482Z,102288.56
2018-12-25T18:57:42.485Z,102284.09
2018-12-25T19:00:50.136Z,102285.88
2018-12-25T19:03:16.173Z,102281.45
2018-12-25T19:05:42.241Z,102280.99
2018-12-25T19:08:08.234Z,102284.20
2018-12-25T19:10:34.266Z,102290.30
2018-12-25T19:13:00.272Z,102277.19
2018-12-25T19:15:26.274Z,102301.61
2018-12-25T19:18:33.935Z,102284.97
2018-12-25T19:21:00.066Z,102285.86
2018-12-25T19:23:26.105Z,102273.72
2018-12-25T19:25:52.106Z,102286.23
2018-12-25T19:28:18.151Z,102284.41
2018-12-25T19:31:04.113Z,102283.33
2018-12-25T19:33:30.446Z,102280.61
2018-12-25T19:35:56.445Z,102282.04
2018-12-25T19:38:22.453Z,102285.43
2018-12-25T19:40:48.495Z,102285.86
2018-12-25T19:43:14.495Z,102279.39
2018-12-25T19:45:40.540Z,102278.50
2018-12-25T19:48:26.509Z,102277.59
2018-12-25T19:50:52.586Z,102282.02
2018-12-25T19:53:38.598Z,102283.16
2018-12-25T19:56:04.643Z,102275.03
2018-12-25T19:58:30.711Z,102269.34
2018-12-25T20:00:56.723Z,102277.13
2018-12-25T20:03:22.836Z,102268.81
2018-12-25T20:06:30.507Z,102267.53
2018-12-25T20:09:36.244Z,102274.08
2018-12-25T20:12:15.527Z,102257.08
2018-12-25T20:15:23.240Z,102257.14
2018-12-25T20:18:29.007Z,102266.14
2018-12-25T20:21:36.694Z,102263.97
2018-12-25T20:24:42.458Z,102263.55
2018-12-25T20:27:48.250Z,102252.22
2018-12-25T20:30:53.998Z,102273.16
2018-12-25T20:33:59.770Z,102258.28
2018-12-25T20:37:05.784Z,102243.95
2018-12-25T20:40:13.470Z,102252.12
2018-12-25T20:46:20.474Z,102248.31
2018-12-25T20:49:26.323Z,102244.91
2018-12-25T20:55:32.995Z,102246.99
2018-12-25T21:10:50.928Z,102233.34
2018-12-25T21:16:57.055Z,102229.47
2018-12-25T21:20:02.905Z,102233.45
2018-12-25T21:23:08.660Z,102238.52
2018-12-25T21:26:14.488Z,102237.15
2018-12-25T21:28:40.525Z,102239.45
2018-12-25T21:31:06.522Z,102233.84
2018-12-25T21:33:32.568Z,102238.15
2018-12-25T21:35:58.583Z,102234.27
2018-12-25T21:38:24.610Z,102241.33
2018-12-25T21:40:50.604Z,102243.72
2018-12-25T21:43:16.652Z,102249.97
2018-12-25T21:45:42.632Z,102243.40
2018-12-25T21:48:08.665Z,102243.87
2018-12-25T21:50:47.990Z,102247.27
2018-12-25T21:53:14.061Z,102242.95
2018-12-25T21:55:40.067Z,102239.92
2018-12-25T21:58:06.111Z,102239.34
2018-12-25T22:00:32.159Z,102241.94
2018-12-25T22:03:18.161Z,102232.44
2018-12-25T22:05:44.238Z,102239.49
2018-12-25T22:08:10.225Z,102253.27
2018-12-25T22:10:36.240Z,102238.10
2018-12-25T22:13:02.270Z,102231.53
2018-12-25T22:15:28.283Z,102236.68
2018-12-25T22:17:54.312Z,102238.38
2018-12-25T22:21:01.983Z,102235.84
2018-12-25T22:23:28.090Z,102233.33
2018-12-25T22:25:54.267Z,102234.98
2018-12-25T22:28:22.141Z,102230.73
2018-12-25T22:30:48.299Z,102232.41
2018-12-25T22:33:14.295Z,102234.98
2018-12-25T22:35:40.529Z,102235.12
2018-12-25T22:38:06.529Z,102239.72
2018-12-25T22:40:32.576Z,102222.05
2018-12-25T22:42:58.628Z,102228.09
2018-12-25T22:45:24.633Z,102215.42
2018-12-25T22:47:50.670Z,102219.44
2018-12-25T22:50:16.682Z,102241.83
2018-12-25T22:52:42.716Z,102220.29
2018-12-25T22:55:08.747Z,102232.84
2018-12-25T22:57:34.858Z,102226.34
2018-12-25T23:00:00.900Z,102253.19
2018-12-25T23:02:26.900Z,102220.20
2018-12-25T23:04:52.935Z,102211.56
2018-12-25T23:07:18.923Z,102224.56
2018-12-25T23:09:44.966Z,102231.58
2018-12-25T23:12:10.977Z,102235.76
2018-12-25T23:14:36.983Z,102224.47
2018-12-25T23:17:03.007Z,102231.44
2018-12-25T23:19:29.009Z,102239.02
2018-12-25T23:21:55.061Z,102234.64
2018-12-25T23:24:21.054Z,102238.48
2018-12-25T23:29:19.595Z,102235.59
2018-12-25T23:31:45.630Z,102238.16
2018-12-25T23:34:11.631Z,102242.83
2018-12-25T23:36:37.674Z,102238.45
2018-12-25T23:39:45.336Z,102228.47
2018-12-25T23:42:11.427Z,102230.60
2018-12-25T23:44:37.493Z,102213.75
2018-12-25T23:47:03.446Z,102227.53
2018-12-25T23:49:29.480Z,102218.45
2018-12-25T23:51:55.526Z,102224.38
2018-12-25T23:54:21.526Z,102222.89
2018-12-25T23:59:19.489Z,102225.86
